Warroad, MN

8:31 PM CDT on July 24, 2017 (GMT -0500)
Warroad International-Carlson

Weather History for KRRT - September, 2013

Change the Weather History Date:

Wednesday, September 4, 2013

  Actual Average Record
Temperature  
Mean Temperature 57 °F -  
Max Temperature 66 °F 72 °F 88 °F (1948)
Min Temperature 48 °F 49 °F 36 °F (1962)
Degree Days  
Heating Degree Days 8    
Growing Degree Days 7 (Base 50)    
Moisture  
Dew Point 50 °F    
Average Humidity 77    
Maximum Humidity 88    
Minimum Humidity 59    
Precipitation  
Precipitation 0.00 in - - ()
Sea Level Pressure  
Sea Level Pressure 30.18 in    
Wind  
Wind Speed 5 mph (NE)    
Max Wind Speed 9 mph    
Max Gust Speed -    
Visibility 10 miles    
Events      
Averages and records for this station are not official NWS values.
T = Trace of Precipitation, MM = Missing Value Source: NWS Daily Summary

Daily Weather History Graph

Daily Weather History Graph

Search for Another Location

Airport or City:

Trip Planner

Search our weather history database for the weather conditions in past years. The results will help you decide how hot, cold, wet, or windy it might be!

Date:

Astronomy

Sep. 04, 2013 Rise Set
Actual Time 6:42 AM CDT 7:56 PM CDT
Civil Twilight 6:10 AM CDT 8:29 PM CDT
Nautical Twilight 5:30 AM CDT 9:08 PM CDT
Astronomical Twilight 4:48 AM CDT 9:50 PM CDT
Moon 5:56 AM CDT (9/4) 7:13 PM CDT (9/4)
Length of Visible Light 14h 19m
Length of Day
13h 14m
Waning Crescent, 1% of the Moon is Illuminated
Sep 4
Waning Crescent
Sep 5
New
Sep 12
First Quarter
Sep 19
Full
Sep 26
Last Quarter

Hourly Weather History & Observations

Time (CDT) Temp. Dew Point Humidity Pressure Visibility Wind Dir Wind Speed Gust Speed Precip Events Conditions
12:14 AM 57.2 °F 51.8 °F 82% 30.06 in 10.0 mi NW 6.9 mph - N/A   Clear
12:34 AM 55.4 °F 51.8 °F 88% 30.07 in 10.0 mi NNW 8.1 mph - N/A   Clear
12:54 AM 55.4 °F 51.8 °F 88% 30.08 in 10.0 mi NNW 8.1 mph - N/A   Clear
1:14 AM 53.6 °F 50.0 °F 88% 30.08 in 10.0 mi NW 5.8 mph - N/A   Clear
1:34 AM 53.6 °F 50.0 °F 88% 30.09 in 10.0 mi NNW 5.8 mph - N/A   Clear
1:54 AM 53.6 °F 48.2 °F 82% 30.10 in 10.0 mi NW 5.8 mph - N/A   Clear
2:14 AM 51.8 °F 48.2 °F 88% 30.11 in 10.0 mi NNW 5.8 mph - N/A   Clear
2:34 AM 51.8 °F 48.2 °F 88% 30.11 in 10.0 mi NW 5.8 mph - N/A   Clear
2:54 AM 51.8 °F 46.4 °F 82% 30.12 in 10.0 mi NW 5.8 mph - N/A   Clear
3:14 AM 50.0 °F 46.4 °F 87% 30.12 in 10.0 mi NW 5.8 mph - N/A   Clear
3:34 AM 50.0 °F 46.4 °F 87% 30.13 in 10.0 mi NW 6.9 mph - N/A   Clear
3:54 AM 50.0 °F 46.4 °F 87% 30.12 in 10.0 mi NW 5.8 mph - N/A   Clear
4:14 AM 48.2 °F 44.6 °F 87% 30.13 in 10.0 mi NNW 4.6 mph - N/A   Clear
4:34 AM 50.0 °F 44.6 °F 82% 30.13 in 10.0 mi NNW 5.8 mph - N/A   Clear
4:54 AM 48.2 °F 44.6 °F 87% 30.13 in 10.0 mi NNW 5.8 mph - N/A   Clear
5:14 AM 48.2 °F 44.6 °F 87% 30.13 in 10.0 mi NNW 5.8 mph - N/A   Clear
5:34 AM 48.2 °F 44.6 °F 87% 30.14 in 10.0 mi NNW 4.6 mph - N/A   Clear
5:54 AM 48.2 °F 44.6 °F 87% 30.15 in 10.0 mi NW 4.6 mph - N/A   Clear
6:14 AM 48.2 °F 44.6 °F 87% 30.15 in 10.0 mi NNW 4.6 mph - N/A   Clear
6:34 AM 48.2 °F 44.6 °F 87% 30.16 in 10.0 mi NNW 4.6 mph - N/A   Clear
6:54 AM 48.2 °F 44.6 °F 87% 30.17 in 10.0 mi NNW 4.6 mph - N/A   Clear
7:14 AM 48.2 °F 44.6 °F 87% 30.17 in 10.0 mi NNW 3.5 mph - N/A   Clear
7:34 AM 48.2 °F 44.6 °F 87% 30.18 in 10.0 mi NNW 4.6 mph - N/A   Clear
7:54 AM 51.8 °F 46.4 °F 82% 30.19 in 10.0 mi NNW 4.6 mph - N/A   Clear
8:14 AM 53.6 °F 48.2 °F 82% 30.19 in 10.0 mi NNW 5.8 mph - N/A   Clear
8:33 AM 55.4 °F 50.0 °F 82% 30.20 in 10.0 mi North 4.6 mph - N/A   Clear
8:54 AM 57.2 °F 51.8 °F 82% 30.20 in 10.0 mi Calm Calm - N/A   Clear
9:14 AM 57.2 °F 51.8 °F 82% 30.21 in 10.0 mi Calm Calm - N/A   Clear
9:33 AM 57.2 °F 51.8 °F 82% 30.21 in 10.0 mi SSE 3.5 mph - N/A   Clear
9:54 AM 57.2 °F 51.8 °F 82% 30.21 in 10.0 mi SSE 3.5 mph - N/A   Clear
10:14 AM 59.0 °F 51.8 °F 77% 30.22 in 10.0 mi SE 4.6 mph - N/A   Clear
10:33 AM 60.8 °F 51.8 °F 72% 30.22 in 10.0 mi SE 9.2 mph - N/A   Scattered Clouds
10:54 AM 60.8 °F 51.8 °F 72% 30.23 in 10.0 mi ESE 5.8 mph - N/A   Scattered Clouds
11:14 AM 60.8 °F 51.8 °F 72% 30.23 in 10.0 mi NE 4.6 mph - N/A   Clear
11:33 AM 60.8 °F 51.8 °F 72% 30.23 in 10.0 mi East 3.5 mph - N/A   Clear
11:54 AM 60.8 °F 51.8 °F 72% 30.23 in 10.0 mi ESE 4.6 mph - N/A   Clear
12:14 PM 62.6 °F 51.8 °F 68% 30.23 in 10.0 mi ENE 3.5 mph - N/A   Clear
12:33 PM 62.6 °F 51.8 °F 68% 30.22 in 10.0 mi ESE 3.5 mph - N/A   Clear
12:54 PM 62.6 °F 51.8 °F 68% 30.23 in 10.0 mi ESE 5.8 mph - N/A   Clear
1:14 PM 62.6 °F 51.8 °F 68% 30.22 in 10.0 mi East 8.1 mph - N/A   Clear
1:33 PM 62.6 °F 51.8 °F 68% 30.22 in 10.0 mi ENE 8.1 mph - N/A   Clear
1:54 PM 62.6 °F 51.8 °F 68% 30.22 in 10.0 mi East 5.8 mph - N/A   Clear
2:14 PM 64.4 °F 51.8 °F 64% 30.22 in 10.0 mi East 6.9 mph - N/A   Clear
2:33 PM 64.4 °F 50.0 °F 59% 30.21 in 10.0 mi East 5.8 mph - N/A   Clear
2:54 PM 64.4 °F 50.0 °F 59% 30.21 in 10.0 mi East 5.8 mph - N/A   Clear
3:14 PM 66.2 °F 51.8 °F 60% 30.20 in 10.0 mi East 4.6 mph - N/A   Clear
3:34 PM 66.2 °F 51.8 °F 60% 30.20 in 10.0 mi East 5.8 mph - N/A   Clear
3:54 PM 66.2 °F 51.8 °F 60% 30.20 in 10.0 mi East 5.8 mph - N/A   Clear
4:14 PM 66.2 °F 51.8 °F 60% 30.20 in 10.0 mi East 5.8 mph - N/A   Clear
4:34 PM 66.2 °F 51.8 °F 60% 30.20 in 10.0 mi East 4.6 mph - N/A   Clear
4:54 PM 66.2 °F 51.8 °F 60% 30.20 in 10.0 mi East 5.8 mph - N/A   Clear
5:14 PM 66.2 °F 51.8 °F 60% 30.19 in 10.0 mi East 5.8 mph - N/A   Clear
5:34 PM 66.2 °F 53.6 °F 64% 30.20 in 10.0 mi East 6.9 mph - N/A   Clear
5:54 PM 66.2 °F 53.6 °F 64% 30.19 in 10.0 mi East 4.6 mph - N/A   Clear
6:14 PM 66.2 °F 51.8 °F 60% 30.19 in 10.0 mi East 5.8 mph - N/A   Clear
6:34 PM 66.2 °F 51.8 °F 60% 30.18 in 10.0 mi East 3.5 mph - N/A   Clear
6:54 PM 66.2 °F 53.6 °F 64% 30.18 in 10.0 mi East 3.5 mph - N/A   Clear
7:14 PM 64.4 °F 53.6 °F 68% 30.18 in 10.0 mi Calm Calm - N/A   Clear
7:34 PM 62.6 °F 53.6 °F 72% 30.19 in 10.0 mi Calm Calm - N/A   Clear
7:54 PM 60.8 °F 53.6 °F 77% 30.19 in 10.0 mi Calm Calm - N/A   Clear
8:14 PM 57.2 °F 53.6 °F 88% 30.19 in 10.0 mi Calm Calm - N/A   Clear
8:33 PM 55.4 °F 51.8 °F 88% 30.20 in 10.0 mi Calm Calm - N/A   Clear
8:54 PM 55.4 °F 51.8 °F 88% 30.20 in 10.0 mi SE 3.5 mph - N/A   Clear
9:14 PM 55.4 °F 51.8 °F 88% 30.20 in 10.0 mi SE 4.6 mph - N/A   Clear
9:34 PM 55.4 °F 50.0 °F 82% 30.20 in 10.0 mi SSE 3.5 mph - N/A   Clear
9:54 PM 53.6 °F 50.0 °F 88% 30.20 in 10.0 mi Calm Calm - N/A   Clear
10:13 PM 53.6 °F 48.2 °F 82% 30.20 in 10.0 mi Calm Calm - N/A   Clear
10:34 PM 53.6 °F 48.2 °F 82% 30.20 in 10.0 mi Calm Calm - N/A   Clear
10:54 PM 51.8 °F 48.2 °F 88% 30.20 in 10.0 mi Calm Calm - N/A   Clear
11:13 PM 51.8 °F 48.2 °F 88% 30.21 in 10.0 mi Calm Calm - N/A   Clear
11:34 PM 51.8 °F 46.4 °F 82% 30.21 in 10.0 mi South 4.6 mph - N/A   Clear
11:54 PM 51.8 °F 46.4 °F 82% 30.21 in 10.0 mi Calm Calm - N/A   Clear